sensor_id;sensor_type;location;lat;lon;timestamp;temperature;humidity
1468;DHT22;727;48.892;9.544;2022-10-31T00:01:15;10.40;99.90
1468;DHT22;727;48.892;9.544;2022-10-31T00:03:42;10.40;99.90
1468;DHT22;727;48.892;9.544;2022-10-31T00:06:09;10.40;99.90
1468;DHT22;727;48.892;9.544;2022-10-31T00:08:35;10.30;99.90
1468;DHT22;727;48.892;9.544;2022-10-31T00:11:02;10.20;99.90
1468;DHT22;727;48.892;9.544;2022-10-31T00:13:29;10.20;99.90
1468;DHT22;727;48.892;9.544;2022-10-31T00:15:56;10.10;99.90
1468;DHT22;727;48.892;9.544;2022-10-31T00:18:24;10.00;99.90
1468;DHT22;727;48.892;9.544;2022-10-31T00:20:58;10.00;99.90
1468;DHT22;727;48.892;9.544;2022-10-31T00:23:25;10.10;99.90
1468;DHT22;727;48.892;9.544;2022-10-31T00:25:52;10.10;99.90
1468;DHT22;727;48.892;9.544;2022-10-31T00:28:18;10.10;99.90
1468;DHT22;727;48.892;9.544;2022-10-31T00:30:45;10.00;99.90
1468;DHT22;727;48.892;9.544;2022-10-31T00:33:12;10.00;99.90
1468;DHT22;727;48.892;9.544;2022-10-31T00:35:40;10.00;99.90
1468;DHT22;727;48.892;9.544;2022-10-31T00:38:06;9.90;99.90
1468;DHT22;727;48.892;9.544;2022-10-31T00:40:33;9.90;99.90
1468;DHT22;727;48.892;9.544;2022-10-31T00:43:00;9.80;99.90
1468;DHT22;727;48.892;9.544;2022-10-31T00:45:26;9.70;99.90
1468;DHT22;727;48.892;9.544;2022-10-31T00:47:53;9.70;99.90
1468;DHT22;727;48.892;9.544;2022-10-31T00:50:20;9.70;99.90
1468;DHT22;727;48.892;9.544;2022-10-31T00:52:48;9.70;99.90
1468;DHT22;727;48.892;9.544;2022-10-31T00:55:15;9.70;99.90
1468;DHT22;727;48.892;9.544;2022-10-31T00:57:41;9.60;99.90
1468;DHT22;727;48.892;9.544;2022-10-31T01:00:10;9.60;99.90
1468;DHT22;727;48.892;9.544;2022-10-31T01:02:37;9.60;99.90
1468;DHT22;727;48.892;9.544;2022-10-31T01:05:04;9.60;99.90
1468;DHT22;727;48.892;9.544;2022-10-31T01:07:31;9.60;99.90
1468;DHT22;727;48.892;9.544;2022-10-31T01:09:59;9.60;99.90
1468;DHT22;727;48.892;9.544;2022-10-31T01:12:26;9.60;99.90
1468;DHT22;727;48.892;9.544;2022-10-31T01:14:52;9.50;99.90
1468;DHT22;727;48.892;9.544;2022-10-31T01:17:19;9.50;99.90
1468;DHT22;727;48.892;9.544;2022-10-31T01:19:46;9.50;99.90
1468;DHT22;727;48.892;9.544;2022-10-31T01:22:12;9.50;99.90
1468;DHT22;727;48.892;9.544;2022-10-31T01:24:39;9.50;99.90
1468;DHT22;727;48.892;9.544;2022-10-31T01:27:07;9.50;99.90
1468;DHT22;727;48.892;9.544;2022-10-31T01:29:34;9.50;99.90
1468;DHT22;727;48.892;9.544;2022-10-31T01:32:01;9.40;99.90
1468;DHT22;727;48.892;9.544;2022-10-31T01:34:27;9.50;99.90
1468;DHT22;727;48.892;9.544;2022-10-31T01:36:54;9.50;99.90
1468;DHT22;727;48.892;9.544;2022-10-31T01:39:21;9.50;99.90
1468;DHT22;727;48.892;9.544;2022-10-31T01:41:50;9.50;99.90
1468;DHT22;727;48.892;9.544;2022-10-31T01:44:50;9.50;99.90
1468;DHT22;727;48.892;9.544;2022-10-31T01:47:19;9.60;99.90
1468;DHT22;727;48.892;9.544;2022-10-31T01:49:51;9.70;99.90
1468;DHT22;727;48.892;9.544;2022-10-31T01:52:24;9.70;99.90
1468;DHT22;727;48.892;9.544;2022-10-31T01:54:54;9.70;99.90
1468;DHT22;727;48.892;9.544;2022-10-31T01:57:22;9.70;99.90
1468;DHT22;727;48.892;9.544;2022-10-31T01:59:55;9.70;99.90
1468;DHT22;727;48.892;9.544;2022-10-31T02:02:24;9.70;99.90
1468;DHT22;727;48.892;9.544;2022-10-31T02:04:52;9.80;99.90
1468;DHT22;727;48.892;9.544;2022-10-31T02:07:23;9.60;99.90
1468;DHT22;727;48.892;9.544;2022-10-31T02:09:53;9.50;99.90
1468;DHT22;727;48.892;9.544;2022-10-31T02:12:20;9.50;99.90
1468;DHT22;727;48.892;9.544;2022-10-31T02:14:47;9.40;99.90
1468;DHT22;727;48.892;9.544;2022-10-31T02:17:15;9.30;99.90
1468;DHT22;727;48.892;9.544;2022-10-31T02:19:50;9.30;99.90
1468;DHT22;727;48.892;9.544;2022-10-31T02:22:23;9.30;99.90
1468;DHT22;727;48.892;9.544;2022-10-31T02:25:03;9.30;99.90
1468;DHT22;727;48.892;9.544;2022-10-31T02:28:00;9.30;99.90
1468;DHT22;727;48.892;9.544;2022-10-31T02:30:37;9.30;99.90
1468;DHT22;727;48.892;9.544;2022-10-31T02:33:18;9.20;99.90
1468;DHT22;727;48.892;9.544;2022-10-31T02:35:55;9.20;99.90
1468;DHT22;727;48.892;9.544;2022-10-31T02:38:33;9.10;99.90
1468;DHT22;727;48.892;9.544;2022-10-31T02:41:06;9.10;99.90
1468;DHT22;727;48.892;9.544;2022-10-31T02:43:39;9.10;99.90
1468;DHT22;727;48.892;9.544;2022-10-31T02:46:10;9.10;99.90
1468;DHT22;727;48.892;9.544;2022-10-31T02:48:42;9.10;99.90
1468;DHT22;727;48.892;9.544;2022-10-31T02:51:11;9.10;99.90
1468;DHT22;727;48.892;9.544;2022-10-31T02:53:39;9.00;99.90
1468;DHT22;727;48.892;9.544;2022-10-31T02:56:09;9.00;99.90
1468;DHT22;727;48.892;9.544;2022-10-31T02:58:40;8.90;99.90
1468;DHT22;727;48.892;9.544;2022-10-31T03:01:39;9.00;99.90
1468;DHT22;727;48.892;9.544;2022-10-31T03:07:08;9.00;99.90
1468;DHT22;727;48.892;9.544;2022-10-31T03:09:44;9.10;99.90
1468;DHT22;727;48.892;9.544;2022-10-31T03:12:16;9.00;99.90
1468;DHT22;727;48.892;9.544;2022-10-31T03:14:48;9.10;99.90
1468;DHT22;727;48.892;9.544;2022-10-31T03:17:22;9.10;99.90
1468;DHT22;727;48.892;9.544;2022-10-31T03:19:56;9.10;99.90
1468;DHT22;727;48.892;9.544;2022-10-31T03:22:27;9.10;99.90
1468;DHT22;727;48.892;9.544;2022-10-31T03:24:56;9.00;99.90
1468;DHT22;727;48.892;9.544;2022-10-31T03:27:26;8.90;99.90
1468;DHT22;727;48.892;9.544;2022-10-31T03:29:54;8.90;99.90
1468;DHT22;727;48.892;9.544;2022-10-31T03:32:24;8.80;99.90
1468;DHT22;727;48.892;9.544;2022-10-31T03:34:55;8.70;99.90
1468;DHT22;727;48.892;9.544;2022-10-31T03:37:24;8.70;99.90
1468;DHT22;727;48.892;9.544;2022-10-31T03:39:53;8.70;99.90
1468;DHT22;727;48.892;9.544;2022-10-31T03:42:24;8.70;99.90
1468;DHT22;727;48.892;9.544;2022-10-31T03:44:55;8.70;99.90
1468;DHT22;727;48.892;9.544;2022-10-31T03:47:23;8.70;99.90
1468;DHT22;727;48.892;9.544;2022-10-31T03:49:50;8.70;99.90
1468;DHT22;727;48.892;9.544;2022-10-31T03:52:24;8.60;99.90
1468;DHT22;727;48.892;9.544;2022-10-31T03:54:55;8.60;99.90
1468;DHT22;727;48.892;9.544;2022-10-31T03:57:26;8.70;99.90
1468;DHT22;727;48.892;9.544;2022-10-31T03:59:57;8.70;99.90
1468;DHT22;727;48.892;9.544;2022-10-31T04:02:29;8.70;99.90
1468;DHT22;727;48.892;9.544;2022-10-31T04:04:57;8.60;99.90
1468;DHT22;727;48.892;9.544;2022-10-31T04:07:28;8.50;99.90
1468;DHT22;727;48.892;9.544;2022-10-31T04:09:57;8.50;99.90
1468;DHT22;727;48.892;9.544;2022-10-31T04:12:27;8.40;99.90
1468;DHT22;727;48.892;9.544;2022-10-31T04:14:57;8.50;99.90
1468;DHT22;727;48.892;9.544;2022-10-31T04:17:27;8.50;99.90
1468;DHT22;727;48.892;9.544;2022-10-31T04:19:58;8.60;99.90
1468;DHT22;727;48.892;9.544;2022-10-31T04:22:26;8.70;99.90
1468;DHT22;727;48.892;9.544;2022-10-31T04:24:53;8.60;99.90
1468;DHT22;727;48.892;9.544;2022-10-31T04:27:20;8.60;99.90
1468;DHT22;727;48.892;9.544;2022-10-31T04:29:47;8.60;99.90
1468;DHT22;727;48.892;9.544;2022-10-31T04:32:13;8.60;99.90
1468;DHT22;727;48.892;9.544;2022-10-31T04:34:40;8.50;99.90
1468;DHT22;727;48.892;9.544;2022-10-31T04:37:07;8.50;99.90
1468;DHT22;727;48.892;9.544;2022-10-31T04:39:35;8.50;99.90
1468;DHT22;727;48.892;9.544;2022-10-31T04:42:01;8.50;99.90
1468;DHT22;727;48.892;9.544;2022-10-31T04:44:28;8.50;99.90
1468;DHT22;727;48.892;9.544;2022-10-31T04:46:55;8.50;99.90
1468;DHT22;727;48.892;9.544;2022-10-31T04:49:22;8.40;99.90
1468;DHT22;727;48.892;9.544;2022-10-31T04:51:48;8.30;99.90
1468;DHT22;727;48.892;9.544;2022-10-31T04:54:15;8.30;99.90
1468;DHT22;727;48.892;9.544;2022-10-31T04:56:43;8.30;99.90
1468;DHT22;727;48.892;9.544;2022-10-31T04:59:10;8.30;99.90
1468;DHT22;727;48.892;9.544;2022-10-31T05:01:37;8.30;99.90
1468;DHT22;727;48.892;9.544;2022-10-31T05:04:04;8.30;99.90
1468;DHT22;727;48.892;9.544;2022-10-31T05:06:30;8.30;99.90
1468;DHT22;727;48.892;9.544;2022-10-31T05:08:57;8.30;99.90
1468;DHT22;727;48.892;9.544;2022-10-31T05:11:24;8.20;99.90
1468;DHT22;727;48.892;9.544;2022-10-31T05:13:52;8.10;99.90
1468;DHT22;727;48.892;9.544;2022-10-31T05:16:18;8.10;99.90
1468;DHT22;727;48.892;9.544;2022-10-31T05:18:45;8.00;99.90
1468;DHT22;727;48.892;9.544;2022-10-31T05:21:12;8.10;99.90
1468;DHT22;727;48.892;9.544;2022-10-31T05:23:38;8.10;99.90
1468;DHT22;727;48.892;9.544;2022-10-31T05:26:05;8.10;99.90
1468;DHT22;727;48.892;9.544;2022-10-31T05:28:32;8.10;99.90
1468;DHT22;727;48.892;9.544;2022-10-31T05:31:00;8.10;99.90
1468;DHT22;727;48.892;9.544;2022-10-31T05:33:26;8.00;99.90
1468;DHT22;727;48.892;9.544;2022-10-31T05:35:53;7.90;99.90
1468;DHT22;727;48.892;9.544;2022-10-31T05:38:20;7.90;99.90
1468;DHT22;727;48.892;9.544;2022-10-31T05:40:46;7.80;99.90
1468;DHT22;727;48.892;9.544;2022-10-31T05:43:13;7.80;99.90
1468;DHT22;727;48.892;9.544;2022-10-31T05:45:40;7.80;99.90
1468;DHT22;727;48.892;9.544;2022-10-31T05:48:09;7.80;99.90
1468;DHT22;727;48.892;9.544;2022-10-31T05:50:35;7.90;99.90
1468;DHT22;727;48.892;9.544;2022-10-31T05:53:04;7.90;99.90
1468;DHT22;727;48.892;9.544;2022-10-31T05:55:31;7.90;99.90
1468;DHT22;727;48.892;9.544;2022-10-31T05:57:58;7.90;99.90
1468;DHT22;727;48.892;9.544;2022-10-31T06:00:26;7.80;99.90
1468;DHT22;727;48.892;9.544;2022-10-31T06:02:58;7.80;99.90
1468;DHT22;727;48.892;9.544;2022-10-31T06:05:26;7.80;99.90
1468;DHT22;727;48.892;9.544;2022-10-31T06:07:53;7.90;99.90
1468;DHT22;727;48.892;9.544;2022-10-31T06:10:20;7.90;99.90
1468;DHT22;727;48.892;9.544;2022-10-31T06:12:47;7.90;99.90
1468;DHT22;727;48.892;9.544;2022-10-31T06:15:14;7.90;99.90
1468;DHT22;727;48.892;9.544;2022-10-31T06:17:41;8.00;99.90
1468;DHT22;727;48.892;9.544;2022-10-31T06:20:09;8.00;99.90
1468;DHT22;727;48.892;9.544;2022-10-31T06:22:37;8.00;99.90
1468;DHT22;727;48.892;9.544;2022-10-31T06:25:04;8.10;99.90
1468;DHT22;727;48.892;9.544;2022-10-31T06:27:31;8.10;99.90
1468;DHT22;727;48.892;9.544;2022-10-31T06:29:58;8.10;99.90
1468;DHT22;727;48.892;9.544;2022-10-31T06:32:24;8.20;99.90
1468;DHT22;727;48.892;9.544;2022-10-31T06:34:51;8.20;99.90
1468;DHT22;727;48.892;9.544;2022-10-31T06:37:18;8.30;99.90
1468;DHT22;727;48.892;9.544;2022-10-31T06:39:46;8.40;99.90
1468;DHT22;727;48.892;9.544;2022-10-31T06:42:15;8.50;99.90
1468;DHT22;727;48.892;9.544;2022-10-31T06:44:41;8.50;99.90
1468;DHT22;727;48.892;9.544;2022-10-31T06:47:08;8.60;99.90
1468;DHT22;727;48.892;9.544;2022-10-31T06:49:36;8.70;99.90
1468;DHT22;727;48.892;9.544;2022-10-31T06:52:03;8.90;99.90
1468;DHT22;727;48.892;9.544;2022-10-31T06:54:31;9.00;99.90
1468;DHT22;727;48.892;9.544;2022-10-31T06:56:59;9.30;99.90
1468;DHT22;727;48.892;9.544;2022-10-31T06:59:25;10.50;99.90
1468;DHT22;727;48.892;9.544;2022-10-31T07:01:52;12.10;99.90
1468;DHT22;727;48.892;9.544;2022-10-31T07:04:19;13.30;99.90
1468;DHT22;727;48.892;9.544;2022-10-31T07:06:46;14.50;99.90
1468;DHT22;727;48.892;9.544;2022-10-31T07:09:12;15.00;99.90
1468;DHT22;727;48.892;9.544;2022-10-31T07:11:39;15.10;99.90
1468;DHT22;727;48.892;9.544;2022-10-31T07:14:07;15.40;99.60
1468;DHT22;727;48.892;9.544;2022-10-31T07:16:34;15.20;98.60
1468;DHT22;727;48.892;9.544;2022-10-31T07:19:00;15.00;98.60
1468;DHT22;727;48.892;9.544;2022-10-31T07:21:27;14.90;99.10
1468;DHT22;727;48.892;9.544;2022-10-31T07:23:54;15.20;98.70
1468;DHT22;727;48.892;9.544;2022-10-31T07:26:21;15.20;98.20
1468;DHT22;727;48.892;9.544;2022-10-31T07:28:48;15.10;98.50
1468;DHT22;727;48.892;9.544;2022-10-31T07:31:16;15.40;98.60
1468;DHT22;727;48.892;9.544;2022-10-31T07:33:43;15.70;97.90
1468;DHT22;727;48.892;9.544;2022-10-31T07:36:09;16.00;97.50
1468;DHT22;727;48.892;9.544;2022-10-31T07:38:36;16.80;97.10
1468;DHT22;727;48.892;9.544;2022-10-31T07:41:03;16.90;94.80
1468;DHT22;727;48.892;9.544;2022-10-31T07:43:30;16.70;95.50
1468;DHT22;727;48.892;9.544;2022-10-31T07:45:56;16.80;95.00
1468;DHT22;727;48.892;9.544;2022-10-31T07:48:24;16.80;94.40
1468;DHT22;727;48.892;9.544;2022-10-31T07:50:53;16.60;94.00
1468;DHT22;727;48.892;9.544;2022-10-31T07:53:19;16.20;94.90
1468;DHT22;727;48.892;9.544;2022-10-31T07:55:46;15.80;95.80
1468;DHT22;727;48.892;9.544;2022-10-31T07:58:15;15.50;96.90
1468;DHT22;727;48.892;9.544;2022-10-31T08:00:43;15.50;97.20
1468;DHT22;727;48.892;9.544;2022-10-31T08:03:11;15.40;97.40
1468;DHT22;727;48.892;9.544;2022-10-31T08:05:40;15.20;97.40
1468;DHT22;727;48.892;9.544;2022-10-31T08:08:07;14.90;98.10
1468;DHT22;727;48.892;9.544;2022-10-31T08:10:35;14.80;99.40
1468;DHT22;727;48.892;9.544;2022-10-31T08:13:04;14.90;99.80
1468;DHT22;727;48.892;9.544;2022-10-31T08:15:31;15.20;99.90
1468;DHT22;727;48.892;9.544;2022-10-31T08:17:59;15.50;99.90
1468;DHT22;727;48.892;9.544;2022-10-31T08:20:27;15.80;99.50
1468;DHT22;727;48.892;9.544;2022-10-31T08:22:56;15.90;99.10
1468;DHT22;727;48.892;9.544;2022-10-31T08:25:24;15.70;99.20
1468;DHT22;727;48.892;9.544;2022-10-31T08:27:51;15.70;99.80
1468;DHT22;727;48.892;9.544;2022-10-31T08:30:18;15.70;99.70
1468;DHT22;727;48.892;9.544;2022-10-31T08:32:45;15.90;99.60
1468;DHT22;727;48.892;9.544;2022-10-31T08:35:12;15.80;99.10
1468;DHT22;727;48.892;9.544;2022-10-31T08:37:39;15.70;99.70
1468;DHT22;727;48.892;9.544;2022-10-31T08:40:08;15.80;99.80
1468;DHT22;727;48.892;9.544;2022-10-31T08:42:36;15.90;99.70
1468;DHT22;727;48.892;9.544;2022-10-31T08:45:03;15.90;99.70
1468;DHT22;727;48.892;9.544;2022-10-31T08:47:30;15.70;99.60
1468;DHT22;727;48.892;9.544;2022-10-31T08:49:57;15.50;99.90
1468;DHT22;727;48.892;9.544;2022-10-31T08:52:24;15.40;99.90
1468;DHT22;727;48.892;9.544;2022-10-31T08:54:51;15.50;99.90
1468;DHT22;727;48.892;9.544;2022-10-31T08:57:19;15.90;99.90
1468;DHT22;727;48.892;9.544;2022-10-31T08:59:46;16.10;99.90
1468;DHT22;727;48.892;9.544;2022-10-31T09:02:15;16.40;99.90
1468;DHT22;727;48.892;9.544;2022-10-31T09:04:42;16.80;99.90
1468;DHT22;727;48.892;9.544;2022-10-31T09:07:08;17.10;98.60
1468;DHT22;727;48.892;9.544;2022-10-31T09:09:39;17.30;98.70
1468;DHT22;727;48.892;9.544;2022-10-31T09:12:08;17.40;98.30
1468;DHT22;727;48.892;9.544;2022-10-31T09:14:36;17.60;98.00
1468;DHT22;727;48.892;9.544;2022-10-31T09:17:03;17.80;97.80
1468;DHT22;727;48.892;9.544;2022-10-31T09:19:29;18.00;97.50
1468;DHT22;727;48.892;9.544;2022-10-31T09:21:56;18.00;97.40
1468;DHT22;727;48.892;9.544;2022-10-31T09:24:23;18.00;97.60
1468;DHT22;727;48.892;9.544;2022-10-31T09:26:50;18.10;97.90
1468;DHT22;727;48.892;9.544;2022-10-31T09:29:16;18.40;97.50
1468;DHT22;727;48.892;9.544;2022-10-31T09:31:44;18.60;97.10
1468;DHT22;727;48.892;9.544;2022-10-31T09:34:11;18.90;96.90
1468;DHT22;727;48.892;9.544;2022-10-31T09:36:38;19.00;96.70
1468;DHT22;727;48.892;9.544;2022-10-31T09:39:05;19.30;96.20
1468;DHT22;727;48.892;9.544;2022-10-31T09:44:38;20.20;95.00
1468;DHT22;727;48.892;9.544;2022-10-31T09:47:15;20.20;94.50
1468;DHT22;727;48.892;9.544;2022-10-31T09:50:00;20.20;94.30
1468;DHT22;727;48.892;9.544;2022-10-31T09:52:30;20.10;94.30
1468;DHT22;727;48.892;9.544;2022-10-31T09:55:00;20.10;94.10
1468;DHT22;727;48.892;9.544;2022-10-31T09:57:31;20.40;94.10
1468;DHT22;727;48.892;9.544;2022-10-31T09:59:59;20.60;94.00
1468;DHT22;727;48.892;9.544;2022-10-31T10:02:32;20.90;93.50
1468;DHT22;727;48.892;9.544;2022-10-31T10:05:03;21.10;92.90
1468;DHT22;727;48.892;9.544;2022-10-31T10:07:38;21.00;92.40
1468;DHT22;727;48.892;9.544;2022-10-31T10:10:14;21.20;93.00
1468;DHT22;727;48.892;9.544;2022-10-31T10:12:53;21.20;91.80
1468;DHT22;727;48.892;9.544;2022-10-31T10:15:41;21.60;91.70
1468;DHT22;727;48.892;9.544;2022-10-31T10:18:22;21.70;91.20
1468;DHT22;727;48.892;9.544;2022-10-31T10:20:59;21.70;90.50
1468;DHT22;727;48.892;9.544;2022-10-31T10:23:35;21.70;90.40
1468;DHT22;727;48.892;9.544;2022-10-31T10:26:10;21.90;90.20
1468;DHT22;727;48.892;9.544;2022-10-31T10:28:43;21.80;90.30
1468;DHT22;727;48.892;9.544;2022-10-31T10:31:14;21.70;89.60
1468;DHT22;727;48.892;9.544;2022-10-31T10:33:47;21.80;89.80
1468;DHT22;727;48.892;9.544;2022-10-31T10:36:22;22.20;86.80
1468;DHT22;727;48.892;9.544;2022-10-31T10:38:55;22.50;86.20
1468;DHT22;727;48.892;9.544;2022-10-31T10:41:28;22.80;84.40
1468;DHT22;727;48.892;9.544;2022-10-31T10:43:57;23.20;84.10
1468;DHT22;727;48.892;9.544;2022-10-31T10:46:28;23.70;82.00
1468;DHT22;727;48.892;9.544;2022-10-31T10:49:18;24.00;80.50
1468;DHT22;727;48.892;9.544;2022-10-31T10:51:51;24.40;78.10
1468;DHT22;727;48.892;9.544;2022-10-31T10:54:41;24.30;78.90
1468;DHT22;727;48.892;9.544;2022-10-31T10:57:22;24.50;77.00
1468;DHT22;727;48.892;9.544;2022-10-31T10:59:52;24.60;76.40
1468;DHT22;727;48.892;9.544;2022-10-31T11:02:21;24.40;76.30
1468;DHT22;727;48.892;9.544;2022-10-31T11:04:51;24.00;77.20
1468;DHT22;727;48.892;9.544;2022-10-31T11:07:19;24.10;77.90
1468;DHT22;727;48.892;9.544;2022-10-31T11:09:45;23.90;75.70
1468;DHT22;727;48.892;9.544;2022-10-31T11:12:19;23.80;76.40
1468;DHT22;727;48.892;9.544;2022-10-31T11:14:50;23.50;76.30
1468;DHT22;727;48.892;9.544;2022-10-31T11:17:26;23.00;78.40
1468;DHT22;727;48.892;9.544;2022-10-31T11:20:03;22.50;80.00
1468;DHT22;727;48.892;9.544;2022-10-31T11:22:31;21.80;82.40
1468;DHT22;727;48.892;9.544;2022-10-31T11:24:57;21.40;84.70
1468;DHT22;727;48.892;9.544;2022-10-31T11:27:25;21.00;86.40
1468;DHT22;727;48.892;9.544;2022-10-31T11:29:53;20.70;88.90
1468;DHT22;727;48.892;9.544;2022-10-31T11:32:30;20.50;90.40
1468;DHT22;727;48.892;9.544;2022-10-31T11:35:00;20.50;90.50
1468;DHT22;727;48.892;9.544;2022-10-31T11:37:32;20.40;90.30
1468;DHT22;727;48.892;9.544;2022-10-31T11:40:03;20.10;91.00
1468;DHT22;727;48.892;9.544;2022-10-31T11:42:36;20.00;91.70
1468;DHT22;727;48.892;9.544;2022-10-31T11:45:14;20.20;91.90
1468;DHT22;727;48.892;9.544;2022-10-31T11:47:42;20.50;91.40
1468;DHT22;727;48.892;9.544;2022-10-31T11:50:15;20.70;91.20
1468;DHT22;727;48.892;9.544;2022-10-31T11:52:47;21.10;90.40
1468;DHT22;727;48.892;9.544;2022-10-31T11:55:16;21.20;90.00
1468;DHT22;727;48.892;9.544;2022-10-31T11:57:45;21.30;89.80
1468;DHT22;727;48.892;9.544;2022-10-31T12:00:22;21.30;89.70
1468;DHT22;727;48.892;9.544;2022-10-31T12:02:49;21.60;88.90
1468;DHT22;727;48.892;9.544;2022-10-31T12:05:18;21.70;87.40
1468;DHT22;727;48.892;9.544;2022-10-31T12:07:48;21.60;87.90
1468;DHT22;727;48.892;9.544;2022-10-31T12:10:15;21.50;88.50
1468;DHT22;727;48.892;9.544;2022-10-31T12:12:54;21.80;89.30
1468;DHT22;727;48.892;9.544;2022-10-31T12:15:32;22.00;88.00
1468;DHT22;727;48.892;9.544;2022-10-31T12:18:17;22.30;87.60
1468;DHT22;727;48.892;9.544;2022-10-31T12:20:57;22.40;86.60
1468;DHT22;727;48.892;9.544;2022-10-31T12:23:37;22.30;87.50
1468;DHT22;727;48.892;9.544;2022-10-31T12:26:14;22.20;87.20
1468;DHT22;727;48.892;9.544;2022-10-31T12:29:03;21.90;88.00
1468;DHT22;727;48.892;9.544;2022-10-31T12:31:49;22.00;88.60
1468;DHT22;727;48.892;9.544;2022-10-31T12:34:35;22.00;88.50
1468;DHT22;727;48.892;9.544;2022-10-31T12:37:11;21.90;89.50
1468;DHT22;727;48.892;9.544;2022-10-31T12:39:47;21.80;89.30
1468;DHT22;727;48.892;9.544;2022-10-31T12:42:23;21.80;88.50
1468;DHT22;727;48.892;9.544;2022-10-31T12:45:05;21.70;89.50
1468;DHT22;727;48.892;9.544;2022-10-31T12:47:46;21.30;90.50
1468;DHT22;727;48.892;9.544;2022-10-31T12:50:29;21.20;90.80
1468;DHT22;727;48.892;9.544;2022-10-31T12:53:09;20.90;91.10
1468;DHT22;727;48.892;9.544;2022-10-31T12:55:48;20.70;91.50
1468;DHT22;727;48.892;9.544;2022-10-31T12:58:22;20.60;91.80
1468;DHT22;727;48.892;9.544;2022-10-31T13:00:58;20.40;92.10
1468;DHT22;727;48.892;9.544;2022-10-31T13:03:32;20.20;92.60
1468;DHT22;727;48.892;9.544;2022-10-31T13:06:05;20.10;93.10
1468;DHT22;727;48.892;9.544;2022-10-31T13:08:38;20.10;93.50
1468;DHT22;727;48.892;9.544;2022-10-31T13:11:10;20.00;94.20
1468;DHT22;727;48.892;9.544;2022-10-31T13:13:41;19.70;94.10
1468;DHT22;727;48.892;9.544;2022-10-31T13:16:13;19.60;94.90
1468;DHT22;727;48.892;9.544;2022-10-31T13:18:45;19.50;95.50
1468;DHT22;727;48.892;9.544;2022-10-31T13:21:18;19.50;95.90
1468;DHT22;727;48.892;9.544;2022-10-31T13:23:48;19.40;95.90
1468;DHT22;727;48.892;9.544;2022-10-31T13:26:22;19.40;96.20
1468;DHT22;727;48.892;9.544;2022-10-31T13:28:57;19.30;96.20
1468;DHT22;727;48.892;9.544;2022-10-31T13:31:26;19.30;96.30
1468;DHT22;727;48.892;9.544;2022-10-31T13:33:54;19.20;96.70
1468;DHT22;727;48.892;9.544;2022-10-31T13:36:28;19.20;96.90
1468;DHT22;727;48.892;9.544;2022-10-31T13:39:03;19.20;97.30
1468;DHT22;727;48.892;9.544;2022-10-31T13:41:40;19.20;97.90
1468;DHT22;727;48.892;9.544;2022-10-31T13:44:14;19.20;97.60
1468;DHT22;727;48.892;9.544;2022-10-31T13:46:43;19.20;97.30
1468;DHT22;727;48.892;9.544;2022-10-31T13:49:37;19.20;97.30
1468;DHT22;727;48.892;9.544;2022-10-31T13:52:16;19.20;97.40
1468;DHT22;727;48.892;9.544;2022-10-31T13:54:45;19.20;97.60
1468;DHT22;727;48.892;9.544;2022-10-31T13:57:18;19.20;97.70
1468;DHT22;727;48.892;9.544;2022-10-31T13:59:49;19.20;98.30
1468;DHT22;727;48.892;9.544;2022-10-31T14:02:19;19.30;98.30
1468;DHT22;727;48.892;9.544;2022-10-31T14:04:51;19.40;98.10
1468;DHT22;727;48.892;9.544;2022-10-31T14:07:20;19.50;97.80
1468;DHT22;727;48.892;9.544;2022-10-31T14:09:54;19.70;97.60
1468;DHT22;727;48.892;9.544;2022-10-31T14:12:26;20.00;96.90
1468;DHT22;727;48.892;9.544;2022-10-31T14:14:57;20.30;96.30
1468;DHT22;727;48.892;9.544;2022-10-31T14:17:28;20.50;95.80
1468;DHT22;727;48.892;9.544;2022-10-31T14:20:26;20.70;95.50
1468;DHT22;727;48.892;9.544;2022-10-31T14:22:57;20.90;94.90
1468;DHT22;727;48.892;9.544;2022-10-31T14:25:32;21.00;94.70
1468;DHT22;727;48.892;9.544;2022-10-31T14:28:02;21.00;94.90
1468;DHT22;727;48.892;9.544;2022-10-31T14:30:30;20.80;95.20
1468;DHT22;727;48.892;9.544;2022-10-31T14:32:59;20.80;95.40
1468;DHT22;727;48.892;9.544;2022-10-31T14:35:35;20.60;95.70
1468;DHT22;727;48.892;9.544;2022-10-31T14:38:40;20.30;96.00
1468;DHT22;727;48.892;9.544;2022-10-31T14:41:31;20.30;96.20
1468;DHT22;727;48.892;9.544;2022-10-31T14:44:36;20.00;96.70
1468;DHT22;727;48.892;9.544;2022-10-31T14:47:13;19.80;97.00
1468;DHT22;727;48.892;9.544;2022-10-31T14:49:58;19.70;98.00
1468;DHT22;727;48.892;9.544;2022-10-31T14:52:29;19.80;98.70
1468;DHT22;727;48.892;9.544;2022-10-31T14:54:58;19.80;99.40
1468;DHT22;727;48.892;9.544;2022-10-31T14:57:29;19.80;99.50
1468;DHT22;727;48.892;9.544;2022-10-31T15:00:02;19.70;99.60
1468;DHT22;727;48.892;9.544;2022-10-31T15:02:32;19.40;99.80
1468;DHT22;727;48.892;9.544;2022-10-31T15:05:05;19.10;99.90
1468;DHT22;727;48.892;9.544;2022-10-31T15:07:33;19.00;99.90
1468;DHT22;727;48.892;9.544;2022-10-31T15:10:02;18.70;99.90
1468;DHT22;727;48.892;9.544;2022-10-31T15:12:31;18.50;99.90
1468;DHT22;727;48.892;9.544;2022-10-31T15:15:10;18.30;99.90
1468;DHT22;727;48.892;9.544;2022-10-31T15:17:43;18.20;99.90
1468;DHT22;727;48.892;9.544;2022-10-31T15:20:11;18.00;99.90
1468;DHT22;727;48.892;9.544;2022-10-31T15:22:38;17.90;99.90
1468;DHT22;727;48.892;9.544;2022-10-31T15:25:10;17.70;99.90
1468;DHT22;727;48.892;9.544;2022-10-31T15:27:41;17.50;99.90
1468;DHT22;727;48.892;9.544;2022-10-31T15:30:18;17.30;99.90
1468;DHT22;727;48.892;9.544;2022-10-31T15:32:46;17.10;99.90
1468;DHT22;727;48.892;9.544;2022-10-31T15:35:21;17.00;99.90
1468;DHT22;727;48.892;9.544;2022-10-31T15:37:48;16.80;99.90
1468;DHT22;727;48.892;9.544;2022-10-31T15:40:17;16.60;99.90
1468;DHT22;727;48.892;9.544;2022-10-31T15:42:50;16.50;99.90
1468;DHT22;727;48.892;9.544;2022-10-31T15:45:22;16.40;99.90
1468;DHT22;727;48.892;9.544;2022-10-31T15:47:54;16.30;99.90
1468;DHT22;727;48.892;9.544;2022-10-31T15:50:23;16.20;99.90
1468;DHT22;727;48.892;9.544;2022-10-31T15:52:52;16.10;99.90
1468;DHT22;727;48.892;9.544;2022-10-31T15:55:21;16.00;99.90
1468;DHT22;727;48.892;9.544;2022-10-31T15:57:50;15.90;99.90
1468;DHT22;727;48.892;9.544;2022-10-31T16:00:24;15.80;99.90
1468;DHT22;727;48.892;9.544;2022-10-31T16:03:19;15.70;99.90
1468;DHT22;727;48.892;9.544;2022-10-31T16:05:49;15.50;99.90
1468;DHT22;727;48.892;9.544;2022-10-31T16:08:24;15.30;99.90
1468;DHT22;727;48.892;9.544;2022-10-31T16:10:52;15.20;99.90
1468;DHT22;727;48.892;9.544;2022-10-31T16:13:23;15.10;99.90
1468;DHT22;727;48.892;9.544;2022-10-31T16:15:54;15.00;99.90
1468;DHT22;727;48.892;9.544;2022-10-31T16:18:22;14.90;99.90
1468;DHT22;727;48.892;9.544;2022-10-31T16:20:50;14.80;99.90
1468;DHT22;727;48.892;9.544;2022-10-31T16:23:19;14.60;99.90
1468;DHT22;727;48.892;9.544;2022-10-31T16:25:47;14.50;99.90
1468;DHT22;727;48.892;9.544;2022-10-31T16:28:17;14.40;99.90
1468;DHT22;727;48.892;9.544;2022-10-31T16:30:45;14.30;99.90
1468;DHT22;727;48.892;9.544;2022-10-31T16:33:26;14.30;99.90
1468;DHT22;727;48.892;9.544;2022-10-31T16:35:54;14.20;99.90
1468;DHT22;727;48.892;9.544;2022-10-31T16:38:21;14.10;99.90
1468;DHT22;727;48.892;9.544;2022-10-31T16:40:48;14.00;99.90
1468;DHT22;727;48.892;9.544;2022-10-31T16:43:17;13.90;99.90
1468;DHT22;727;48.892;9.544;2022-10-31T16:45:45;13.90;99.90
1468;DHT22;727;48.892;9.544;2022-10-31T16:48:14;13.90;99.90
1468;DHT22;727;48.892;9.544;2022-10-31T16:50:43;13.80;99.90
1468;DHT22;727;48.892;9.544;2022-10-31T16:53:12;13.70;99.90